createdAt,value
2023-04-04T00:01:13.388Z,3.83
2023-04-04T00:03:59.483Z,3.84
2023-04-04T00:06:45.908Z,3.80
2023-04-04T00:09:32.456Z,3.76
2023-04-04T00:12:18.382Z,3.75
2023-04-04T00:15:04.784Z,3.73
2023-04-04T00:17:50.600Z,3.69
2023-04-04T00:20:36.678Z,3.67
2023-04-04T00:23:22.979Z,3.65
2023-04-04T00:26:08.819Z,3.60
2023-04-04T00:28:56.239Z,3.56
2023-04-04T00:31:42.120Z,3.60
2023-04-04T00:34:27.849Z,3.60
2023-04-04T00:37:14.025Z,3.55
2023-04-04T00:39:59.952Z,3.54
2023-04-04T00:43:14.251Z,3.53
2023-04-04T00:50:38.817Z,3.46
2023-04-04T00:53:24.635Z,3.48
2023-04-04T00:56:10.438Z,3.45
2023-04-04T00:59:01.944Z,3.43
2023-04-04T01:01:47.737Z,3.37
2023-04-04T01:05:08.821Z,3.38
2023-04-04T01:07:55.368Z,3.35
2023-04-04T01:10:41.761Z,3.32
2023-04-04T01:13:34.544Z,3.29
2023-04-04T01:16:43.513Z,3.29
2023-04-04T01:19:36.973Z,3.22
2023-04-04T01:22:41.112Z,3.17
2023-04-04T01:25:32.672Z,3.11
2023-04-04T01:29:00.873Z,3.04
2023-04-04T01:31:51.693Z,2.98
2023-04-04T01:44:02.986Z,2.79
2023-04-04T01:46:54.521Z,2.73
2023-04-04T01:49:41.079Z,2.69
2023-04-04T01:52:28.307Z,2.66
2023-04-04T01:55:54.468Z,2.55
2023-04-04T01:59:18.503Z,2.46
2023-04-04T02:02:05.982Z,2.39
2023-04-04T02:04:52.417Z,2.31
2023-04-04T02:07:38.615Z,2.33
2023-04-04T02:10:32.968Z,2.28
2023-04-04T02:13:18.610Z,2.25
2023-04-04T02:16:06.102Z,2.17
2023-04-04T02:18:53.108Z,2.19
2023-04-04T02:21:39.056Z,2.18
2023-04-04T02:24:24.850Z,2.18
2023-04-04T02:27:10.780Z,2.08
2023-04-04T02:29:56.881Z,2.16
2023-04-04T02:32:43.185Z,2.13
2023-04-04T02:35:33.370Z,2.11
2023-04-04T02:38:19.144Z,2.06
2023-04-04T02:41:06.597Z,2.04
2023-04-04T02:43:52.484Z,1.98
2023-04-04T02:46:38.442Z,1.87
2023-04-04T02:49:29.678Z,1.90
2023-04-04T02:52:17.219Z,1.85
2023-04-04T02:55:07.157Z,1.74
2023-04-04T02:57:56.108Z,1.73
2023-04-04T03:00:42.052Z,1.69
2023-04-04T03:03:28.432Z,1.71
2023-04-04T03:06:15.614Z,1.64
2023-04-04T03:09:02.428Z,1.67
2023-04-04T03:11:48.462Z,1.63
2023-04-04T03:14:34.396Z,1.66
2023-04-04T03:17:20.733Z,1.62
2023-04-04T03:20:06.832Z,1.58
2023-04-04T03:22:52.892Z,1.58
2023-04-04T03:25:38.991Z,1.56
2023-04-04T03:28:26.468Z,1.46
2023-04-04T03:31:12.442Z,1.43
2023-04-04T03:34:00.942Z,1.39
2023-04-04T03:36:47.007Z,1.37
2023-04-04T03:39:33.027Z,1.38
2023-04-04T03:42:18.578Z,1.34
2023-04-04T03:45:04.662Z,1.40
2023-04-04T03:47:52.868Z,1.39
2023-04-04T03:50:39.007Z,1.36
2023-04-04T03:53:25.980Z,1.33
2023-04-04T03:56:11.988Z,1.29
2023-04-04T03:58:57.675Z,1.26
2023-04-04T04:01:43.454Z,1.22
2023-04-04T04:04:29.426Z,1.21
2023-04-04T04:07:15.502Z,1.18
2023-04-04T04:10:01.675Z,1.19
2023-04-04T04:12:47.467Z,1.20
2023-04-04T04:15:34.097Z,1.24
2023-04-04T04:18:23.004Z,1.20
2023-04-04T04:21:11.287Z,1.27
2023-04-04T04:24:00.486Z,1.29
2023-04-04T04:26:47.376Z,1.27
2023-04-04T04:29:35.061Z,1.30
2023-04-04T04:32:21.116Z,1.32
2023-04-04T04:35:10.830Z,1.32
2023-04-04T04:37:57.704Z,1.34
2023-04-04T04:40:44.202Z,1.32
2023-04-04T04:43:37.312Z,1.33
2023-04-04T04:46:23.053Z,1.30
2023-04-04T04:49:09.274Z,1.30
2023-04-04T04:51:55.651Z,1.25
2023-04-04T04:54:43.833Z,1.22
2023-04-04T04:57:29.804Z,1.13
2023-04-04T05:00:20.490Z,1.16
2023-04-04T05:03:07.502Z,1.15
2023-04-04T05:05:58.374Z,1.12
2023-04-04T05:08:44.397Z,1.15
2023-04-04T05:11:48.889Z,1.15
2023-04-04T05:14:38.409Z,1.20
2023-04-04T05:17:25.197Z,1.26
2023-04-04T05:20:14.827Z,1.29
2023-04-04T05:23:03.877Z,1.32
2023-04-04T05:25:55.525Z,1.34
2023-04-04T05:28:45.055Z,1.38
2023-04-04T05:31:31.232Z,1.35
2023-04-04T05:34:19.857Z,1.36
2023-04-04T05:37:08.198Z,1.38
2023-04-04T05:39:55.268Z,1.39
2023-04-04T05:42:42.740Z,1.42
2023-04-04T05:45:29.364Z,1.42
2023-04-04T05:48:32.322Z,1.39
2023-04-04T05:51:19.344Z,1.38
2023-04-04T05:54:18.062Z,1.44
2023-04-04T05:57:04.433Z,1.42
2023-04-04T05:59:59.867Z,1.34
2023-04-04T06:02:45.998Z,1.39
2023-04-04T06:05:37.152Z,1.35
2023-04-04T06:08:23.870Z,1.31
2023-04-04T06:11:09.974Z,1.32
2023-04-04T06:13:56.664Z,1.35
2023-04-04T06:16:43.989Z,1.29
2023-04-04T06:19:29.953Z,1.39
2023-04-04T06:22:17.956Z,1.41
2023-04-04T06:25:10.466Z,1.48
2023-04-04T06:27:59.430Z,1.54
2023-04-04T06:30:45.433Z,1.59
2023-04-04T06:33:33.782Z,1.71
2023-04-04T06:36:20.700Z,1.75
2023-04-04T06:39:07.359Z,1.77
2023-04-04T06:41:53.370Z,1.81
2023-04-04T06:44:45.278Z,1.85
2023-04-04T06:47:32.530Z,1.90
2023-04-04T06:50:22.489Z,1.93
2023-04-04T06:53:09.552Z,1.96
2023-04-04T06:56:01.608Z,2.02
2023-04-04T06:58:47.910Z,2.05
2023-04-04T07:01:34.323Z,2.10
2023-04-04T07:04:21.676Z,2.11
2023-04-04T07:07:07.649Z,2.18
2023-04-04T07:09:53.323Z,2.19
2023-04-04T07:12:38.997Z,2.24
2023-04-04T07:15:24.785Z,2.28
2023-04-04T07:18:13.301Z,2.26
2023-04-04T07:20:59.545Z,2.25
2023-04-04T07:23:45.255Z,2.34
2023-04-04T07:26:30.828Z,2.40
2023-04-04T07:29:16.562Z,2.45
2023-04-04T07:32:02.336Z,2.45
2023-04-04T07:34:49.635Z,2.43
2023-04-04T07:37:39.919Z,2.43
2023-04-04T07:40:26.318Z,2.38
2023-04-04T07:43:12.185Z,2.41
2023-04-04T07:46:01.908Z,2.41
2023-04-04T07:48:48.329Z,2.45
2023-04-04T07:51:35.552Z,2.42
2023-04-04T07:54:22.296Z,2.47
2023-04-04T07:57:10.009Z,2.51
2023-04-04T07:59:56.128Z,2.53
2023-04-04T08:02:43.963Z,2.59
2023-04-04T08:05:30.449Z,2.66
2023-04-04T08:08:16.568Z,2.68
2023-04-04T08:11:02.569Z,2.68
2023-04-04T08:13:48.606Z,2.72
2023-04-04T08:16:34.169Z,2.77
2023-04-04T08:19:20.197Z,2.82
2023-04-04T08:22:06.209Z,2.91
2023-04-04T08:24:52.305Z,2.98
2023-04-04T08:27:43.962Z,3.04
2023-04-04T08:30:30.070Z,3.17
2023-04-04T08:33:16.347Z,3.16
2023-04-04T08:36:02.173Z,3.39
2023-04-04T08:38:48.371Z,3.39
2023-04-04T08:41:35.876Z,3.46
2023-04-04T08:44:22.869Z,3.54
2023-04-04T08:47:10.823Z,3.58
2023-04-04T08:49:59.982Z,3.63
2023-04-04T08:52:46.748Z,3.70
2023-04-04T08:55:32.797Z,3.76
2023-04-04T08:58:19.167Z,3.80
2023-04-04T09:01:06.359Z,3.82
2023-04-04T09:03:53.500Z,3.85
2023-04-04T09:06:39.434Z,3.90
2023-04-04T09:09:25.472Z,3.97
2023-04-04T09:12:12.413Z,4.05
2023-04-04T09:14:59.639Z,4.08
2023-04-04T09:17:45.903Z,4.19
2023-04-04T09:20:48.727Z,4.21
2023-04-04T09:23:34.345Z,4.26
2023-04-04T09:26:19.981Z,4.22
2023-04-04T09:29:08.708Z,4.24
2023-04-04T09:31:54.402Z,4.27
2023-04-04T09:34:41.319Z,4.35
2023-04-04T09:37:27.528Z,4.41
2023-04-04T09:40:14.167Z,4.44
2023-04-04T09:43:01.245Z,4.41
2023-04-04T09:45:47.692Z,4.43
2023-04-04T09:48:34.981Z,4.44
2023-04-04T09:51:20.624Z,4.42
2023-04-04T09:54:10.858Z,4.34
2023-04-04T09:56:59.285Z,4.44
2023-04-04T09:59:46.723Z,4.45
2023-04-04T10:02:32.892Z,4.57
2023-04-04T10:05:20.230Z,4.64
2023-04-04T10:08:21.406Z,4.68
2023-04-04T10:11:12.084Z,4.74
2023-04-04T10:13:59.702Z,4.78
2023-04-04T10:16:46.020Z,4.86
2023-04-04T10:19:32.017Z,4.93
2023-04-04T10:22:18.007Z,4.96
2023-04-04T10:25:07.291Z,5.05
2023-04-04T10:27:53.004Z,5.13
2023-04-04T10:30:55.721Z,5.21
2023-04-04T10:34:02.178Z,5.22
2023-04-04T10:36:58.950Z,5.27
2023-04-04T10:39:52.378Z,5.33
2023-04-04T10:42:47.254Z,5.47
2023-04-04T10:45:35.413Z,5.55
2023-04-04T10:48:23.015Z,5.65
2023-04-04T10:51:11.783Z,5.72
2023-04-04T10:53:58.272Z,5.83
2023-04-04T10:56:44.313Z,5.87
2023-04-04T10:59:30.307Z,5.96
2023-04-04T11:02:18.320Z,6.04
2023-04-04T11:05:19.109Z,6.18
2023-04-04T11:08:09.144Z,6.36
2023-04-04T11:10:57.456Z,6.46
2023-04-04T11:14:01.760Z,6.52
2023-04-04T11:16:47.597Z,6.57
2023-04-04T11:19:33.456Z,6.64
2023-04-04T11:22:22.491Z,6.79
2023-04-04T11:25:27.483Z,6.74
2023-04-04T11:28:15.408Z,6.75
2023-04-04T11:31:20.519Z,6.71
2023-04-04T11:34:13.757Z,6.72
2023-04-04T11:37:17.738Z,6.66
2023-04-04T11:40:14.035Z,6.61
2023-04-04T11:43:03.575Z,6.56
2023-04-04T11:45:49.439Z,6.58
2023-04-04T11:48:35.159Z,6.61
2023-04-04T11:51:20.878Z,6.58
2023-04-04T11:54:17.491Z,6.54
2023-04-04T11:57:03.955Z,6.55
2023-04-04T11:59:51.544Z,6.61
2023-04-04T12:02:37.924Z,6.62
2023-04-04T12:05:26.790Z,6.62
2023-04-04T12:08:13.631Z,6.62
2023-04-04T12:11:04.754Z,6.69
2023-04-04T12:13:50.880Z,6.73
2023-04-04T12:16:38.211Z,6.74
2023-04-04T12:19:24.784Z,6.69
2023-04-04T12:22:10.911Z,6.66
2023-04-04T12:24:58.995Z,6.72
2023-04-04T12:27:45.182Z,6.75
2023-04-04T12:30:31.207Z,6.69
2023-04-04T12:33:17.379Z,6.69
2023-04-04T12:36:09.556Z,6.73
2023-04-04T12:39:00.491Z,6.75
2023-04-04T12:42:02.653Z,6.66
2023-04-04T12:44:52.185Z,6.63
2023-04-04T12:47:38.049Z,6.58
2023-04-04T12:50:26.641Z,6.52
2023-04-04T12:53:27.328Z,6.54
2023-04-04T12:56:13.549Z,6.52
2023-04-04T12:59:04.085Z,6.52
2023-04-04T13:01:49.863Z,6.52
2023-04-04T13:04:35.903Z,6.44
2023-04-04T13:07:27.616Z,6.40
2023-04-04T13:10:16.486Z,6.39
2023-04-04T13:13:03.713Z,6.35
2023-04-04T13:15:53.113Z,6.28
2023-04-04T13:18:42.464Z,6.21
2023-04-04T13:21:28.869Z,6.12
2023-04-04T13:24:14.905Z,5.97
2023-04-04T13:27:01.302Z,5.75
2023-04-04T13:29:47.007Z,5.48
2023-04-04T13:32:32.967Z,5.33
2023-04-04T13:35:19.347Z,5.20
2023-04-04T13:38:05.036Z,5.05
2023-04-04T13:40:50.853Z,5.03
2023-04-04T13:43:36.799Z,5.02
2023-04-04T13:46:23.034Z,4.97
2023-04-04T13:49:11.026Z,4.98
2023-04-04T13:51:56.733Z,4.91
2023-04-04T13:54:42.379Z,4.86
2023-04-04T13:57:28.884Z,4.85
2023-04-04T14:00:15.353Z,4.82
2023-04-04T14:03:01.540Z,4.74
2023-04-04T14:05:47.726Z,4.79
2023-04-04T14:08:34.938Z,4.80
2023-04-04T14:11:21.023Z,4.82
2023-04-04T14:14:06.767Z,4.83
2023-04-04T14:16:52.914Z,4.83
2023-04-04T14:19:39.795Z,4.79
2023-04-04T14:22:25.714Z,4.81
2023-04-04T14:25:11.630Z,4.82
2023-04-04T14:27:57.572Z,4.86
2023-04-04T14:30:43.408Z,4.84
2023-04-04T14:33:29.191Z,4.78
2023-04-04T14:36:15.618Z,4.75
2023-04-04T14:39:01.522Z,4.64
2023-04-04T14:41:47.433Z,4.63
2023-04-04T14:44:33.795Z,4.57
2023-04-04T14:47:19.446Z,4.49
2023-04-04T14:50:05.701Z,4.47
2023-04-04T14:52:53.005Z,4.45
2023-04-04T14:55:39.329Z,4.41
2023-04-04T14:58:25.567Z,4.43
2023-04-04T15:01:11.111Z,4.40
2023-04-04T15:03:57.334Z,4.33
2023-04-04T15:06:43.674Z,4.29
2023-04-04T15:09:30.749Z,4.20
2023-04-04T15:12:17.016Z,4.08
2023-04-04T15:15:03.017Z,3.92
2023-04-04T15:17:49.379Z,3.83
2023-04-04T15:20:40.185Z,3.77
2023-04-04T15:23:26.574Z,3.76
2023-04-04T15:26:12.743Z,3.75
2023-04-04T15:28:58.890Z,3.75
2023-04-04T15:31:44.854Z,3.73
2023-04-04T15:34:31.270Z,3.69
2023-04-04T15:37:17.584Z,3.65
2023-04-04T15:40:03.540Z,3.55
2023-04-04T15:42:49.549Z,3.56
2023-04-04T15:45:35.822Z,3.54
2023-04-04T15:48:21.682Z,3.46
2023-04-04T15:51:07.359Z,3.48
2023-04-04T15:53:56.732Z,3.42
2023-04-04T15:56:42.488Z,3.43
2023-04-04T15:59:31.934Z,3.41
2023-04-04T16:02:19.322Z,3.37
2023-04-04T16:05:07.541Z,3.35
2023-04-04T16:07:53.138Z,3.39
2023-04-04T16:10:39.159Z,3.38
2023-04-04T16:13:25.386Z,3.36
2023-04-04T16:16:11.157Z,3.35
2023-04-04T16:18:57.002Z,3.35
2023-04-04T16:21:45.725Z,3.28
2023-04-04T16:24:31.714Z,3.22
2023-04-04T16:27:17.828Z,3.13
2023-04-04T16:30:04.298Z,3.09
2023-04-04T16:32:50.995Z,3.02
2023-04-04T16:35:37.435Z,2.99
2023-04-04T16:38:23.348Z,2.95
2023-04-04T16:41:09.000Z,2.97
2023-04-04T16:43:55.528Z,2.95
2023-04-04T16:46:41.707Z,2.98
2023-04-04T16:49:27.877Z,2.95
2023-04-04T16:52:14.918Z,2.94
2023-04-04T16:55:00.896Z,2.84
2023-04-04T16:57:47.445Z,2.83
2023-04-04T17:00:33.729Z,2.81
2023-04-04T17:03:19.562Z,2.82
2023-04-04T17:06:06.636Z,2.84
2023-04-04T17:08:52.288Z,2.83
2023-04-04T17:11:39.499Z,2.81
2023-04-04T17:14:26.348Z,2.77
2023-04-04T17:17:12.176Z,2.77
2023-04-04T17:19:57.922Z,2.71
2023-04-04T17:22:44.962Z,2.70
2023-04-04T17:25:31.402Z,2.64
2023-04-04T17:28:17.395Z,2.60
2023-04-04T17:31:04.116Z,2.56
2023-04-04T17:33:50.266Z,2.56
2023-04-04T17:36:36.702Z,2.48
2023-04-04T17:39:22.752Z,2.45
2023-04-04T17:42:09.132Z,2.39
2023-04-04T17:44:56.013Z,2.39
2023-04-04T17:47:41.797Z,2.39
2023-04-04T17:50:28.181Z,2.40
2023-04-04T17:53:13.872Z,2.40
2023-04-04T17:55:59.926Z,2.38
2023-04-04T17:58:46.565Z,2.37
2023-04-04T18:01:32.824Z,2.32
2023-04-04T18:04:19.436Z,2.29
2023-04-04T18:07:08.568Z,2.29
2023-04-04T18:09:54.329Z,2.22
2023-04-04T18:12:40.412Z,2.19
2023-04-04T18:15:26.532Z,2.18
2023-04-04T18:18:12.323Z,2.10
2023-04-04T18:20:58.103Z,2.09
2023-04-04T18:23:44.111Z,2.11
2023-04-04T18:26:30.084Z,2.10
2023-04-04T18:29:16.079Z,2.06
2023-04-04T18:32:02.957Z,2.18
2023-04-04T18:34:48.958Z,2.17
2023-04-04T18:37:34.910Z,2.15
2023-04-04T18:40:21.226Z,2.12
2023-04-04T18:43:07.465Z,2.13
2023-04-04T18:45:55.095Z,2.11
2023-04-04T18:48:41.768Z,2.14
2023-04-04T18:51:27.865Z,2.12
2023-04-04T18:54:13.622Z,2.16
2023-04-04T18:57:00.907Z,2.17
2023-04-04T18:59:47.611Z,2.15
2023-04-04T19:02:34.298Z,2.22
2023-04-04T19:05:24.283Z,2.22
2023-04-04T19:08:12.579Z,2.17
2023-04-04T19:10:58.768Z,2.27
2023-04-04T19:13:44.794Z,2.27
2023-04-04T19:16:30.823Z,2.30
2023-04-04T19:19:16.544Z,2.31
2023-04-04T19:22:02.372Z,2.39
2023-04-04T19:24:47.929Z,2.42
2023-04-04T19:27:33.489Z,2.41
2023-04-04T19:30:43.813Z,2.37
2023-04-04T19:33:32.877Z,2.45
2023-04-04T19:36:19.977Z,2.48
2023-04-04T19:39:08.513Z,2.47
2023-04-04T19:41:54.307Z,2.45
2023-04-04T19:44:41.199Z,2.47
2023-04-04T19:47:27.065Z,2.41
2023-04-04T19:50:38.076Z,2.34
2023-04-04T19:53:27.642Z,2.36
2023-04-04T19:56:15.126Z,2.34
2023-04-04T19:59:03.593Z,2.30
2023-04-04T20:02:00.112Z,2.25
2023-04-04T20:04:47.107Z,2.24
2023-04-04T20:07:33.260Z,2.18
2023-04-04T20:10:39.623Z,2.14
2023-04-04T20:13:26.097Z,2.22
2023-04-04T20:16:17.104Z,2.27
2023-04-04T20:19:06.880Z,2.30
2023-04-04T20:21:52.896Z,2.35
2023-04-04T20:24:41.516Z,2.37
2023-04-04T20:27:28.107Z,2.35
2023-04-04T20:30:13.853Z,2.35
2023-04-04T20:32:59.755Z,2.34
2023-04-04T20:35:46.173Z,2.35
2023-04-04T20:38:32.072Z,2.37
2023-04-04T20:41:19.802Z,2.37
2023-04-04T20:44:06.262Z,2.42
2023-04-04T20:46:52.374Z,2.45
2023-04-04T20:49:37.964Z,2.46
2023-04-04T20:52:24.402Z,2.50
2023-04-04T20:55:10.588Z,2.54
2023-04-04T20:58:22.870Z,2.58
2023-04-04T21:01:12.949Z,2.67
2023-04-04T21:03:59.212Z,2.72
2023-04-04T21:06:45.105Z,2.76
2023-04-04T21:09:31.178Z,2.77
2023-04-04T21:12:16.902Z,2.77
2023-04-04T21:15:04.120Z,2.74
2023-04-04T21:17:50.378Z,2.78
2023-04-04T21:20:49.300Z,2.82
2023-04-04T21:23:43.105Z,2.84
2023-04-04T21:26:34.114Z,2.84
2023-04-04T21:29:26.548Z,2.83
2023-04-04T21:32:12.413Z,2.84
2023-04-04T21:34:58.156Z,2.86
2023-04-04T21:37:44.866Z,2.85
2023-04-04T21:40:31.209Z,2.85
2023-04-04T21:43:16.856Z,2.90
2023-04-04T21:46:02.655Z,2.90
2023-04-04T21:48:48.321Z,2.98
2023-04-04T21:51:34.236Z,3.02
2023-04-04T21:54:20.300Z,3.04
2023-04-04T21:57:06.009Z,3.04
2023-04-04T21:59:51.599Z,3.00
2023-04-04T22:02:37.294Z,3.00
2023-04-04T22:05:32.610Z,2.96
2023-04-04T22:08:24.769Z,2.98
2023-04-04T22:11:13.622Z,2.96
2023-04-04T22:14:12.559Z,2.97
2023-04-04T22:17:03.068Z,2.92
2023-04-04T22:19:59.038Z,2.90
2023-04-04T22:22:45.741Z,2.86
2023-04-04T22:25:33.798Z,2.84
2023-04-04T22:28:24.934Z,2.81
2023-04-04T22:31:10.929Z,2.78
2023-04-04T22:33:56.728Z,2.79
2023-04-04T22:36:43.656Z,2.76
2023-04-04T22:39:30.873Z,2.81
2023-04-04T22:42:19.917Z,2.79
2023-04-04T22:45:06.290Z,2.83
2023-04-04T22:47:51.982Z,2.84
2023-04-04T22:50:38.073Z,2.84
2023-04-04T22:53:26.699Z,2.82
2023-04-04T22:56:12.668Z,2.85
2023-04-04T22:58:58.480Z,2.86
2023-04-04T23:01:44.600Z,2.89
2023-04-04T23:04:30.583Z,2.91
2023-04-04T23:07:16.451Z,2.89
2023-04-04T23:10:02.596Z,2.87
2023-04-04T23:12:48.464Z,2.85
2023-04-04T23:15:37.784Z,2.87
2023-04-04T23:18:24.312Z,2.86
2023-04-04T23:21:09.884Z,2.86
2023-04-04T23:23:56.600Z,2.89
2023-04-04T23:26:42.308Z,2.91
2023-04-04T23:29:28.024Z,2.89
2023-04-04T23:32:13.944Z,2.90
2023-04-04T23:35:00.011Z,2.88
2023-04-04T23:37:46.290Z,2.92
2023-04-04T23:40:32.010Z,2.93
2023-04-04T23:43:17.441Z,2.96
2023-04-04T23:46:03.286Z,2.96
2023-04-04T23:48:49.066Z,2.96
2023-04-04T23:51:38.392Z,2.97
2023-04-04T23:54:24.347Z,2.91
2023-04-04T23:57:10.220Z,2.92
2023-04-04T23:59:56.499Z,2.92
